createdAt,value
2017-04-02T00:00:08.615Z,63.8
2017-04-02T00:01:18.682Z,63.8
2017-04-02T00:02:28.708Z,63.89
2017-04-02T00:03:38.740Z,63.89
2017-04-02T00:04:49.085Z,63.89
2017-04-02T00:05:59.418Z,63.89
2017-04-02T00:07:09.442Z,63.89
2017-04-02T00:08:19.767Z,63.8
2017-04-02T00:09:30.107Z,63.7
2017-04-02T00:10:40.454Z,63.89
2017-04-02T00:11:50.810Z,63.89
2017-04-02T00:13:00.526Z,63.8
2017-04-02T00:14:10.918Z,63.89
2017-04-02T00:15:21.279Z,63.8
2017-04-02T00:16:31.297Z,63.89
2017-04-02T00:17:41.640Z,63.51
2017-04-02T00:18:51.963Z,63.32
2017-04-02T00:20:02.313Z,63.7
2017-04-02T00:21:12.659Z,63.42
2017-04-02T00:22:22.711Z,63.51
2017-04-02T00:23:32.422Z,63.48
2017-04-02T00:24:42.757Z,63.51
2017-04-02T00:25:53.094Z,63.42
2017-04-02T00:27:03.132Z,63.7
2017-04-02T00:28:13.480Z,63.76
2017-04-02T00:29:23.550Z,63.67
2017-04-02T00:30:33.913Z,63.76
2017-04-02T00:31:43.951Z,63.86
2017-04-02T00:32:53.991Z,63.86
2017-04-02T00:34:03.704Z,63.86
2017-04-02T00:35:13.731Z,63.96
2017-04-02T00:36:24.079Z,63.86
2017-04-02T00:37:34.408Z,63.76
2017-04-02T00:38:44.461Z,63.54
2017-04-02T00:39:54.495Z,63.83
2017-04-02T00:41:04.213Z,63.73
2017-04-02T00:42:13.609Z,63.83
2017-04-02T00:43:24.195Z,63.64
2017-04-02T00:44:34.524Z,63.26
2017-04-02T00:45:44.851Z,63.45
2017-04-02T00:46:54.883Z,63.45
2017-04-02T00:48:05.235Z,63.45
2017-04-02T00:49:15.277Z,63.23
2017-04-02T00:50:25.612Z,63.35
2017-04-02T00:51:36.010Z,63.23
2017-04-02T00:52:46.358Z,63.03
2017-04-02T00:53:56.713Z,63.32
2017-04-02T00:55:07.050Z,63.03
2017-04-02T00:56:17.387Z,63.32
2017-04-02T00:57:27.718Z,63.23
2017-04-02T00:58:38.067Z,63.13
2017-04-02T00:59:48.403Z,63.13
2017-04-02T01:00:58.740Z,63.03
2017-04-02T01:02:08.784Z,63.23
2017-04-02T01:03:18.812Z,63.32
2017-04-02T01:04:29.169Z,62.94
2017-04-02T01:05:39.499Z,63.13
2017-04-02T01:06:49.836Z,63.13
2017-04-02T01:08:00.187Z,63.32
2017-04-02T01:09:10.526Z,63.23
2017-04-02T01:10:20.890Z,63.13
2017-04-02T01:11:31.234Z,63.32
2017-04-02T01:12:41.257Z,63.29
2017-04-02T01:13:51.599Z,63.29
2017-04-02T01:15:01.329Z,63.29
2017-04-02T01:16:11.681Z,63.29
2017-04-02T01:17:22.013Z,63.1
2017-04-02T01:18:32.364Z,63.1
2017-04-02T01:19:42.387Z,63
2017-04-02T01:20:52.426Z,63
2017-04-02T01:22:02.487Z,63.29
2017-04-02T01:23:13.033Z,63.29
2017-04-02T01:24:23.390Z,63.39
2017-04-02T01:25:33.715Z,63.1
2017-04-02T01:26:44.055Z,63.39
2017-04-02T01:27:54.082Z,63.29
2017-04-02T01:29:04.411Z,63.1
2017-04-02T01:30:14.736Z,63.1
2017-04-02T01:31:25.095Z,63
2017-04-02T01:32:35.439Z,63
2017-04-02T01:33:45.761Z,63.1
2017-04-02T01:34:55.787Z,63.1
2017-04-02T01:36:06.126Z,63
2017-04-02T01:37:16.164Z,63
2017-04-02T01:38:26.504Z,63.1
2017-04-02T01:39:36.526Z,63.1
2017-04-02T01:40:46.863Z,63.07
2017-04-02T01:41:57.192Z,63.1
2017-04-02T01:43:07.530Z,63
2017-04-02T01:44:17.560Z,62.97
2017-04-02T01:45:27.899Z,63.16
2017-04-02T01:46:37.974Z,63.26
2017-04-02T01:47:48.301Z,63.26
2017-04-02T01:48:58.644Z,63.07
2017-04-02T01:50:08.362Z,62.97
2017-04-02T01:51:18.377Z,63.26
2017-04-02T01:52:28.729Z,63.26
2017-04-02T01:53:38.756Z,63.07
2017-04-02T01:54:49.087Z,63.07
2017-04-02T01:55:59.435Z,63.26
2017-04-02T01:57:09.779Z,63.16
2017-04-02T01:58:20.127Z,63.16
2017-04-02T01:59:30.199Z,63.26
2017-04-02T02:00:40.531Z,63.16
2017-04-02T02:01:50.872Z,63.07
2017-04-02T02:03:01.213Z,63.07
2017-04-02T02:04:11.252Z,63.07
2017-04-02T02:05:21.601Z,63.26
2017-04-02T02:06:31.628Z,62.97
2017-04-02T02:07:41.953Z,62.65
2017-04-02T02:08:52.298Z,63.23
2017-04-02T02:10:02.648Z,63.07
2017-04-02T02:11:13.030Z,63.13
2017-04-02T02:12:23.400Z,63.03
2017-04-02T02:13:33.745Z,62.94
2017-04-02T02:14:44.132Z,62.65
2017-04-02T02:15:54.471Z,62.84
2017-04-02T02:17:04.810Z,62.94
2017-04-02T02:18:14.832Z,62.75
2017-04-02T02:19:25.149Z,62.75
2017-04-02T02:20:35.485Z,63.23
2017-04-02T02:21:45.818Z,63.03
2017-04-02T02:22:55.848Z,62.84
2017-04-02T02:24:06.197Z,62.75
2017-04-02T02:25:16.231Z,63.13
2017-04-02T02:26:26.582Z,63.03
2017-04-02T02:27:36.586Z,62.94
2017-04-02T02:28:46.936Z,63.03
2017-04-02T02:29:56.974Z,62.84
2017-04-02T02:31:07.007Z,62.94
2017-04-02T02:32:17.042Z,62.65
2017-04-02T02:33:27.059Z,62.75
2017-04-02T02:34:37.096Z,63.03
2017-04-02T02:35:47.442Z,62.75
2017-04-02T02:36:57.777Z,63.13
2017-04-02T02:38:08.111Z,63.03
2017-04-02T02:39:18.433Z,63.13
2017-04-02T02:40:28.449Z,63
2017-04-02T02:41:38.805Z,63.13
2017-04-02T02:42:48.824Z,62.75
2017-04-02T02:43:59.205Z,63.13
2017-04-02T02:45:09.536Z,62.71
2017-04-02T02:46:19.878Z,62.62
2017-04-02T02:47:30.202Z,62.84
2017-04-02T02:48:40.541Z,62.81
2017-04-02T02:49:50.561Z,63.13
2017-04-02T02:51:00.906Z,63.1
2017-04-02T02:52:11.234Z,63
2017-04-02T02:53:21.258Z,62.91
2017-04-02T02:54:31.284Z,63
2017-04-02T02:55:41.624Z,63
2017-04-02T02:56:51.651Z,63
2017-04-02T02:58:01.684Z,62.71
2017-04-02T02:59:12.026Z,62.71
2017-04-02T03:00:22.359Z,62.78
2017-04-02T03:01:32.687Z,62.62
2017-04-02T03:32:34.302Z,61.35
2017-04-02T03:33:44.308Z,61.83
2017-04-02T03:34:54.009Z,62.78
2017-04-02T03:36:04.033Z,63.26
2017-04-02T03:37:14.050Z,63.64
2017-04-02T03:38:24.080Z,64.31
2017-04-02T03:39:33.785Z,64.21
2017-04-02T03:40:43.484Z,64.11
2017-04-02T03:41:53.821Z,64.11
2017-04-02T03:43:04.165Z,64.15
2017-04-02T03:44:14.487Z,64.34
2017-04-02T03:45:24.825Z,63.96
2017-04-02T03:46:35.157Z,63.86
2017-04-02T03:47:45.193Z,64.08
2017-04-02T03:48:55.537Z,64.18
2017-04-02T03:50:05.885Z,63.99
2017-04-02T03:51:16.223Z,63.8
2017-04-02T03:52:26.253Z,63.83
2017-04-02T03:53:36.587Z,63.54
2017-04-02T03:54:46.293Z,63.92
2017-04-02T03:55:56.299Z,63.26
2017-04-02T03:57:06.633Z,63.45
2017-04-02T03:58:16.962Z,63.07
2017-04-02T03:59:27.301Z,62.91
2017-04-02T04:00:37.326Z,62.91
2017-04-02T04:01:47.388Z,63.1
2017-04-02T04:02:57.411Z,62.81
2017-04-02T04:04:07.742Z,62.91
2017-04-02T04:05:17.740Z,63.1
2017-04-02T04:06:27.768Z,63
2017-04-02T04:07:38.103Z,62.81
2017-04-02T04:08:48.429Z,63.2
2017-04-02T04:09:58.765Z,63
2017-04-02T04:11:09.118Z,62.91
2017-04-02T04:12:19.454Z,62.81
2017-04-02T04:13:29.796Z,62.62
2017-04-02T04:14:40.126Z,62.62
2017-04-02T04:15:50.452Z,62.91
2017-04-02T04:17:01.029Z,62.62
2017-04-02T04:18:11.362Z,62.62
2017-04-02T04:19:21.385Z,62.27
2017-04-02T04:20:31.096Z,62.27
2017-04-02T04:21:41.424Z,62.65
2017-04-02T04:22:51.430Z,62.62
2017-04-02T04:24:01.758Z,62.75
2017-04-02T04:25:12.144Z,62.75
2017-04-02T04:26:22.480Z,62.84
2017-04-02T04:27:32.816Z,62.18
2017-04-02T04:28:43.160Z,62.37
2017-04-02T04:29:53.491Z,62.46
2017-04-02T04:31:03.828Z,62.37
2017-04-02T04:32:13.539Z,62.37
2017-04-02T04:33:23.555Z,62.18
2017-04-02T04:34:33.582Z,62.37
2017-04-02T04:35:43.293Z,62.08
2017-04-02T04:36:53.302Z,62.46
2017-04-02T04:38:03.652Z,62.37
2017-04-02T04:39:13.667Z,62.18
2017-04-02T04:40:23.996Z,62.27
2017-04-02T04:41:34.328Z,62.18
2017-04-02T04:42:44.394Z,62.18
2017-04-02T04:43:54.728Z,62.18
2017-04-02T04:45:05.047Z,62.27
2017-04-02T04:46:15.376Z,61.6
2017-04-02T04:47:25.758Z,62.08
2017-04-02T04:48:35.779Z,61.89
2017-04-02T04:49:46.110Z,61.83
2017-04-02T04:50:56.452Z,61.35
2017-04-02T04:52:06.804Z,61.25
2017-04-02T04:53:16.505Z,61.07
2017-04-02T04:54:26.841Z,61.47
2017-04-02T04:55:36.876Z,61.29
2017-04-02T04:56:46.914Z,61.38
2017-04-02T04:57:57.238Z,61.38
2017-04-02T04:59:07.570Z,61.41
2017-04-02T05:00:17.591Z,61.03
2017-04-02T05:01:27.961Z,61.41
2017-04-02T05:02:38.288Z,61.51
2017-04-02T05:03:48.627Z,61.41
2017-04-02T05:04:58.663Z,61.22
2017-04-02T05:06:08.995Z,61.25
2017-04-02T05:07:19.335Z,61.35
2017-04-02T05:08:29.357Z,61.54
2017-04-02T05:09:39.371Z,60.8
2017-04-02T05:10:49.704Z,61.19
2017-04-02T05:12:00.052Z,61.19
2017-04-02T05:13:10.390Z,61.12
2017-04-02T05:14:20.735Z,61.12
2017-04-02T05:15:31.054Z,61.25
2017-04-02T05:16:41.385Z,61.54
2017-04-02T05:17:51.412Z,62.4
2017-04-02T05:19:01.442Z,62.46
2017-04-02T05:20:11.773Z,62.94
2017-04-02T05:21:22.128Z,63.32
2017-04-02T05:22:32.458Z,62.81
2017-04-02T05:23:42.472Z,63.29
2017-04-02T05:24:52.805Z,63.1
2017-04-02T05:26:03.140Z,63.29
2017-04-02T05:27:13.479Z,63.1
2017-04-02T05:28:23.808Z,63.29
2017-04-02T05:29:34.139Z,63.29
2017-04-02T05:30:44.494Z,63.1
2017-04-02T05:31:54.832Z,62.94
2017-04-02T05:33:05.179Z,62.55
2017-04-02T05:34:15.195Z,62.17
2017-04-02T05:35:25.532Z,62.37
2017-04-02T05:36:35.900Z,62.2
2017-04-02T05:37:45.953Z,62.4
2017-04-02T05:38:56.301Z,62.4
2017-04-02T05:40:06.688Z,63.06
2017-04-02T05:41:17.038Z,62.87
2017-04-02T05:42:27.377Z,62.97
2017-04-02T05:43:37.725Z,62.59
2017-04-02T05:44:47.757Z,62.68
2017-04-02T05:45:58.088Z,62.59
2017-04-02T05:47:08.174Z,63.06
2017-04-02T05:48:18.545Z,62.4
2017-04-02T05:49:28.886Z,62.81
2017-04-02T05:50:39.221Z,62.33
2017-04-02T05:51:49.546Z,62.43
2017-04-02T05:52:59.890Z,62.81
2017-04-02T05:54:10.228Z,62.33
2017-04-02T05:55:20.572Z,62.71
2017-04-02T05:56:30.907Z,62.9
2017-04-02T05:57:40.930Z,62.04
2017-04-02T05:58:51.272Z,61.85
2017-04-02T06:00:00.981Z,61.85
2017-04-02T06:01:10.707Z,61.94
2017-04-02T06:02:21.043Z,62.23
2017-04-02T06:03:31.060Z,62.81
2017-04-02T06:04:41.439Z,62.33
2017-04-02T06:05:51.454Z,62.17
2017-04-02T06:07:01.776Z,61.98
2017-04-02T06:08:12.110Z,61.98
2017-04-02T06:09:22.438Z,62.07
2017-04-02T06:10:32.770Z,62.84
2017-04-02T06:11:42.800Z,62.84
2017-04-02T06:12:53.131Z,62.74
2017-04-02T06:14:02.850Z,62.84
2017-04-02T06:15:12.911Z,62.46
2017-04-02T06:16:23.257Z,62.26
2017-04-02T06:17:33.598Z,62.46
2017-04-02T06:18:43.628Z,62.46
2017-04-02T06:19:53.657Z,62.36
2017-04-02T06:21:03.994Z,62.36
2017-04-02T06:22:14.416Z,62.3
2017-04-02T06:23:24.804Z,62.3
2017-04-02T06:24:35.183Z,62.2
2017-04-02T06:25:45.537Z,61.91
2017-04-02T06:26:55.581Z,62.1
2017-04-02T06:28:05.924Z,62.2
2017-04-02T06:29:16.253Z,62.3
2017-04-02T06:30:26.741Z,62.33
2017-04-02T06:31:37.049Z,62.3
2017-04-02T06:32:47.401Z,62.13
2017-04-02T06:33:57.108Z,62.52
2017-04-02T06:35:06.826Z,62.42
2017-04-02T06:36:16.846Z,62.52
2017-04-02T06:37:26.567Z,62.33
2017-04-02T06:38:36.612Z,62.52
2017-04-02T06:39:46.987Z,62.33
2017-04-02T06:40:57.014Z,62.23
2017-04-02T06:42:07.371Z,62.16
2017-04-02T06:43:17.706Z,62.26
2017-04-02T06:44:27.733Z,62.07
2017-04-02T06:45:38.076Z,62.36
2017-04-02T06:46:48.106Z,62.45
2017-04-02T06:47:58.135Z,62.36
2017-04-02T06:49:08.481Z,62.36
2017-04-02T06:50:18.819Z,62.55
2017-04-02T06:51:28.543Z,62.45
2017-04-02T06:52:38.897Z,62.55
2017-04-02T06:53:48.928Z,62.96
2017-04-02T06:54:59.274Z,62.48
2017-04-02T06:56:09.624Z,62.58
2017-04-02T06:57:19.661Z,62.39
2017-04-02T06:58:29.709Z,62.39
2017-04-02T06:59:40.048Z,62.13
2017-04-02T07:00:50.380Z,62.52
2017-04-02T07:02:00.749Z,62.23
2017-04-02T07:03:10.553Z,62.61
2017-04-02T07:04:20.578Z,62.42
2017-04-02T07:05:30.930Z,62.52
2017-04-02T07:06:40.959Z,62.52
2017-04-02T07:07:50.994Z,62.42
2017-04-02T07:09:01.329Z,62.16
2017-04-02T07:10:11.677Z,62.07
2017-04-02T07:11:21.704Z,62.13
2017-04-02T07:12:32.047Z,62.35
2017-04-02T07:13:41.757Z,62.35
2017-04-02T07:14:51.483Z,62.45
2017-04-02T07:16:01.190Z,62.64
2017-04-02T07:17:11.536Z,62.26
2017-04-02T07:18:21.579Z,62.55
2017-04-02T07:19:31.632Z,62.29
2017-04-02T07:20:41.975Z,62.48
2017-04-02T07:21:52.317Z,62.19
2017-04-02T07:23:02.655Z,62.38
2017-04-02T07:24:12.993Z,62.19
2017-04-02T07:25:23.342Z,62.48
2017-04-02T07:26:33.370Z,62.48
2017-04-02T07:27:43.737Z,62.29
2017-04-02T07:28:54.086Z,62.51
2017-04-02T07:30:04.430Z,62.32
2017-04-02T07:31:14.493Z,62.61
2017-04-02T07:32:24.602Z,62.51
2017-04-02T07:33:34.949Z,62.51
2017-04-02T07:34:45.292Z,62.41
2017-04-02T07:35:55.631Z,62.41
2017-04-02T07:37:05.978Z,62.61
2017-04-02T07:38:16.310Z,62.64
2017-04-02T07:39:26.653Z,62.16
2017-04-02T07:40:36.995Z,62.64
2017-04-02T07:41:46.723Z,62.35
2017-04-02T07:42:56.438Z,62.64
2017-04-02T07:44:06.771Z,62.35
2017-04-02T07:45:17.109Z,62.16
2017-04-02T07:46:27.455Z,62.35
2017-04-02T07:47:37.802Z,62.35
2017-04-02T07:48:47.535Z,62.09
2017-04-02T07:49:57.883Z,62.57
2017-04-02T07:51:08.273Z,62.38
2017-04-02T07:52:18.614Z,62.19
2017-04-02T07:53:28.962Z,62.57
2017-04-02T07:54:38.987Z,62.48
2017-04-02T07:55:49.039Z,62.51
2017-04-02T07:56:59.065Z,62.7
2017-04-02T07:58:08.787Z,62.6
2017-04-02T07:59:18.805Z,62.7
2017-04-02T08:00:29.140Z,62.6
2017-04-02T08:01:38.860Z,62.32
2017-04-02T08:02:49.203Z,62.35
2017-04-02T08:03:59.239Z,62.63
2017-04-02T08:05:09.572Z,62.63
2017-04-02T08:06:19.298Z,62.63
2017-04-02T08:07:29.647Z,62.54
2017-04-02T08:08:39.674Z,62.73
2017-04-02T08:09:49.390Z,62.63
2017-04-02T08:10:59.733Z,62.66
2017-04-02T08:12:10.072Z,62.28
2017-04-02T08:13:20.103Z,62.28
2017-04-02T08:14:30.456Z,62.48
2017-04-02T08:15:40.789Z,62.48
2017-04-02T08:16:51.138Z,62.66
2017-04-02T08:18:01.478Z,62.76
2017-04-02T08:19:11.827Z,62.31
2017-04-02T08:20:22.170Z,62.31
2017-04-02T08:21:32.513Z,62.31
2017-04-02T08:22:42.871Z,62.31
2017-04-02T08:23:52.929Z,62.31
2017-04-02T08:25:03.286Z,62.34
2017-04-02T08:26:13.304Z,62.34
2017-04-02T08:27:23.668Z,62.44
2017-04-02T08:28:34.007Z,62.34
2017-04-02T08:29:43.720Z,62.44
2017-04-02T08:30:53.791Z,62.57
2017-04-02T08:32:03.823Z,62.57
2017-04-02T08:33:13.547Z,62.47
2017-04-02T08:34:23.587Z,62.57
2017-04-02T08:35:33.652Z,62.47
2017-04-02T08:36:44.001Z,62.5
2017-04-02T08:37:54.346Z,62.6
2017-04-02T08:39:04.694Z,62.6
2017-04-02T08:40:15.039Z,62.5
2017-04-02T08:41:25.385Z,62.4
2017-04-02T08:42:35.728Z,62.5
2017-04-02T08:43:46.061Z,62.12
2017-04-02T08:44:56.097Z,62.21
2017-04-02T08:46:06.440Z,62.12
2017-04-02T08:47:16.481Z,62.21
2017-04-02T08:48:26.515Z,62.4
2017-04-02T08:49:36.853Z,62.4
2017-04-02T08:50:46.874Z,62.31
2017-04-02T08:51:56.908Z,62.24
2017-04-02T08:53:07.288Z,62.24
2017-04-02T08:54:17.629Z,62.53
2017-04-02T08:55:27.668Z,62.24
2017-04-02T08:56:38.030Z,62.37
2017-04-02T08:57:48.066Z,62.18
2017-04-02T08:58:58.412Z,61.98
2017-04-02T09:00:08.758Z,62.08
2017-04-02T09:01:18.841Z,62.01
2017-04-02T09:02:29.169Z,62.4
2017-04-02T09:03:39.529Z,62.79
2017-04-02T09:04:49.549Z,62.5
2017-04-02T09:05:59.901Z,62.3
2017-04-02T09:07:10.278Z,62.5
2017-04-02T09:08:20.632Z,62.5
2017-04-02T09:09:30.660Z,62.69
2017-04-02T09:10:40.994Z,62.4
2017-04-02T09:11:51.040Z,62.43
2017-04-02T09:13:01.376Z,62.34
2017-04-02T09:14:11.135Z,62.24
2017-04-02T09:15:21.489Z,62.07
2017-04-02T09:16:31.848Z,62.07
2017-04-02T09:17:42.254Z,62.07
2017-04-02T09:18:52.618Z,62.07
2017-04-02T09:20:02.982Z,62.17
2017-04-02T09:21:13.350Z,62.27
2017-04-02T09:22:23.384Z,61.98
2017-04-02T09:23:33.748Z,62.07
2017-04-02T09:24:43.775Z,61.88
2017-04-02T09:25:53.815Z,62.17
2017-04-02T09:27:04.175Z,62.17
2017-04-02T09:28:13.893Z,62.07
2017-04-02T09:29:24.260Z,61.88
2017-04-02T09:30:34.612Z,61.98
2017-04-02T09:31:44.974Z,61.91
2017-04-02T09:32:54.994Z,62.2
2017-04-02T09:34:05.033Z,62.2
2017-04-02T09:35:15.435Z,62.01
2017-04-02T09:36:25.512Z,62.2
2017-04-02T09:37:35.563Z,62.2
2017-04-02T09:38:45.925Z,62.1
2017-04-02T09:39:56.271Z,62.4
2017-04-02T09:41:06.605Z,62.49
2017-04-02T09:42:16.640Z,62.49
2017-04-02T09:43:26.992Z,61.52
2017-04-02T09:44:37.344Z,61.46
2017-04-02T09:45:47.701Z,61.65
2017-04-02T09:46:57.748Z,62.04
2017-04-02T09:48:08.098Z,61.75
2017-04-02T09:49:18.456Z,61.75
2017-04-02T09:50:28.810Z,61.65
2017-04-02T09:51:39.196Z,61.46
2017-04-02T09:52:49.535Z,61.75
2017-04-02T09:53:59.258Z,61.29
2017-04-02T09:55:09.615Z,61.29
2017-04-02T09:56:19.955Z,61.39
2017-04-02T09:57:30.307Z,61.39
2017-04-02T09:58:40.646Z,61.39
2017-04-02T09:59:50.990Z,61.29
2017-04-02T10:01:01.352Z,61.81
2017-04-02T10:02:11.708Z,61.52
2017-04-02T10:03:21.752Z,61.32
2017-04-02T10:04:32.103Z,61.32
2017-04-02T10:05:42.472Z,61.32
2017-04-02T10:06:52.516Z,61.42
2017-04-02T10:08:02.872Z,61.71
2017-04-02T10:09:13.157Z,61.81
2017-04-02T10:10:23.556Z,61.32
2017-04-02T10:11:33.609Z,61.61
2017-04-02T10:12:43.970Z,61.35
2017-04-02T10:13:54.361Z,61.42
2017-04-02T10:15:04.767Z,61.42
2017-04-02T10:16:15.148Z,61.52
2017-04-02T10:17:25.527Z,61.71
2017-04-02T10:18:35.567Z,61.71
2017-04-02T10:19:45.942Z,61.61
2017-04-02T10:20:56.038Z,61.65
2017-04-02T10:22:06.096Z,61.84
2017-04-02T10:23:16.457Z,61.45
2017-04-02T10:24:26.856Z,61.35
2017-04-02T10:25:36.924Z,61.45
2017-04-02T10:26:46.982Z,61.74
2017-04-02T10:27:57.330Z,61.65
2017-04-02T10:29:07.689Z,61.65
2017-04-02T10:30:17.805Z,61.38
2017-04-02T10:31:28.202Z,61.48
2017-04-02T10:32:38.568Z,61.48
2017-04-02T10:33:48.937Z,61.48
2017-04-02T10:34:59.531Z,61.19
2017-04-02T10:36:09.582Z,61.48
2017-04-02T10:37:19.958Z,61.29
2017-04-02T10:38:30.334Z,61.48
2017-04-02T10:39:40.383Z,61.51
2017-04-02T10:40:51.026Z,61.61
2017-04-02T10:42:01.107Z,61.41
2017-04-02T10:43:11.466Z,61.41
2017-04-02T10:44:21.815Z,61.12
2017-04-02T10:45:32.426Z,61.61
2017-04-02T10:46:42.476Z,61.61
2017-04-02T10:47:52.230Z,61.71
2017-04-02T10:49:02.575Z,61.51
2017-04-02T10:50:12.909Z,61.8
2017-04-02T10:51:23.351Z,61.61
2017-04-02T10:52:33.723Z,61.61
2017-04-02T10:53:44.066Z,61.61
2017-04-02T10:54:54.124Z,61.61
2017-04-02T10:56:04.483Z,61.83
2017-04-02T10:57:14.535Z,61.44
2017-04-02T10:58:24.889Z,61.74
2017-04-02T10:59:34.961Z,61.74
2017-04-02T11:00:45.346Z,61.54
2017-04-02T11:01:55.404Z,61.08
2017-04-02T11:03:05.789Z,61.08
2017-04-02T11:04:16.151Z,61.28
2017-04-02T11:05:26.539Z,61.28
2017-04-02T11:06:36.895Z,61.47
2017-04-02T11:07:46.943Z,61.08
2017-04-02T11:08:57.043Z,61.31
2017-04-02T11:10:06.807Z,61.21
2017-04-02T11:11:17.189Z,61.08
2017-04-02T11:12:27.240Z,61.51
2017-04-02T11:13:37.607Z,61.6
2017-04-02T11:14:47.976Z,61.6
2017-04-02T11:15:57.716Z,61.7
2017-04-02T11:17:08.061Z,61.41
2017-04-02T11:18:18.439Z,61.51
2017-04-02T11:19:28.825Z,61.54
2017-04-02T11:20:39.267Z,61.73
2017-04-02T11:21:49.678Z,61.63
2017-04-02T11:23:00.058Z,61.93
2017-04-02T11:24:10.470Z,61.93
2017-04-02T11:25:20.831Z,61.63
2017-04-02T11:26:31.192Z,61.54
2017-04-02T11:27:41.250Z,61.83
2017-04-02T11:28:51.618Z,61.44
2017-04-02T11:30:01.992Z,61.83
2017-04-02T11:31:12.045Z,61.34
2017-04-02T11:32:22.091Z,61.66
2017-04-02T11:33:32.157Z,61.83
2017-04-02T11:34:42.556Z,61.63
2017-04-02T11:42:13.717Z,61.27
2017-04-02T11:43:23.464Z,61.57
2017-04-02T11:44:33.862Z,61.47
2017-04-02T11:45:43.907Z,61.47
2017-04-02T11:46:54.255Z,61.37
2017-04-02T11:48:04.612Z,61.27
2017-04-02T11:49:14.973Z,61.47
2017-04-02T11:50:25.014Z,61.18
2017-04-02T11:51:34.766Z,61.27
2017-04-02T11:52:45.148Z,61.15
2017-04-02T11:53:55.496Z,61.44
2017-04-02T11:55:05.864Z,61.24
2017-04-02T11:56:15.892Z,61.44
2017-04-02T11:57:26.234Z,61.24
2017-04-02T11:58:36.316Z,61.15
2017-04-02T11:59:46.356Z,61.15
2017-04-02T12:00:56.711Z,61.54
2017-04-02T12:02:06.753Z,61.05
2017-04-02T12:03:17.111Z,61.15
2017-04-02T12:04:27.478Z,61.63
2017-04-02T12:05:37.527Z,61.24
2017-04-02T12:06:47.584Z,61.15
2017-04-02T12:07:57.933Z,61.34
2017-04-02T12:09:07.974Z,61.54
2017-04-02T12:10:17.694Z,60.95
2017-04-02T12:11:28.050Z,61.44
2017-04-02T12:12:38.122Z,61.15
2017-04-02T12:13:48.154Z,61.05
2017-04-02T12:14:57.873Z,61.05
2017-04-02T12:16:08.271Z,60.85
2017-04-02T12:17:18.637Z,61.24
2017-04-02T12:18:28.996Z,61.24
2017-04-02T12:19:38.403Z,60.88
2017-04-02T12:20:48.452Z,61.37
2017-04-02T12:21:58.809Z,60.78
2017-04-02T12:23:09.176Z,61.47
2017-04-02T12:24:19.509Z,61.47
2017-04-02T12:25:29.567Z,61.57
2017-04-02T12:26:39.308Z,61.57
2017-04-02T12:27:49.341Z,61.47
2017-04-02T12:28:59.720Z,60.98
2017-04-02T12:30:09.137Z,60.88
2017-04-02T12:31:19.499Z,60.98
2017-04-02T12:32:29.546Z,60.88
2017-04-02T12:33:39.895Z,61.08
2017-04-02T12:34:49.630Z,60.98
2017-04-02T12:35:59.977Z,60.88
2017-04-02T12:37:10.353Z,60.88
2017-04-02T12:38:20.078Z,61.86
2017-04-02T12:39:29.532Z,61.37
2017-04-02T12:40:39.909Z,61.47
2017-04-02T12:41:49.959Z,60.98
2017-04-02T12:42:59.995Z,60.88
2017-04-02T12:44:10.333Z,61.37
2017-04-02T12:45:20.683Z,61.27
2017-04-02T12:46:30.745Z,61.37
2017-04-02T12:47:41.073Z,61.66
2017-04-02T12:48:51.427Z,61.66
2017-04-02T12:50:01.505Z,61.27
2017-04-02T12:51:11.535Z,61.18
2017-04-02T12:52:21.588Z,61.18
2017-04-02T12:53:31.638Z,61.47
2017-04-02T12:54:41.664Z,61.57
2017-04-02T12:55:52.021Z,61.66
2017-04-02T12:57:02.383Z,61.66
2017-04-02T12:58:12.413Z,61.27
2017-04-02T12:59:22.786Z,61.66
2017-04-02T13:00:33.129Z,61.66
2017-04-02T13:01:42.851Z,61.18
2017-04-02T13:02:53.217Z,61.66
2017-04-02T13:04:03.262Z,61.66
2017-04-02T13:05:13.631Z,61.66
2017-04-02T13:06:23.976Z,61.57
2017-04-02T13:07:34.063Z,61.37
2017-04-02T13:08:43.472Z,61.18
2017-04-02T13:09:53.817Z,61.66
2017-04-02T13:11:03.853Z,61.47
2017-04-02T13:12:14.255Z,61.47
2017-04-02T13:13:24.608Z,61.18
2017-04-02T13:14:34.649Z,61.57
2017-04-02T13:15:45.006Z,61.18
2017-04-02T13:16:55.358Z,61.47
2017-04-02T13:18:05.392Z,61.47
2017-04-02T13:19:15.437Z,61.47
2017-04-02T13:20:25.478Z,61.37
2017-04-02T13:21:35.885Z,61.27
2017-04-02T13:22:46.236Z,61.5
2017-04-02T13:23:55.971Z,61.3
2017-04-02T13:25:06.324Z,61.3
2017-04-02T13:26:16.678Z,61.5
2017-04-02T13:27:27.048Z,61.6
2017-04-02T13:28:37.462Z,61.3
2017-04-02T13:29:47.807Z,61.21
2017-04-02T13:30:58.175Z,61.3
2017-04-02T13:32:08.229Z,61.18
2017-04-02T13:33:18.592Z,61.57
2017-04-02T13:34:28.931Z,61.18
2017-04-02T13:35:38.681Z,61.3
2017-04-02T13:36:49.047Z,61.6
2017-04-02T13:37:59.390Z,61.4
2017-04-02T13:39:09.735Z,61.21
2017-04-02T13:40:20.071Z,61.79
2017-04-02T13:41:30.415Z,61.99
2017-04-02T13:42:40.455Z,61.79
2017-04-02T13:43:50.811Z,61.99
2017-04-02T13:45:01.162Z,61.6
2017-04-02T13:46:11.248Z,61.79
2017-04-02T13:47:21.322Z,61.79
2017-04-02T13:48:31.381Z,61.3
2017-04-02T13:49:41.750Z,61.5
2017-04-02T13:50:52.332Z,61.5
2017-04-02T13:52:02.691Z,61.6
2017-04-02T13:53:13.051Z,61.89
2017-04-02T13:54:23.102Z,61.79
2017-04-02T13:55:33.469Z,61.89
2017-04-02T13:56:43.840Z,61.79
2017-04-02T13:57:53.893Z,61.4
2017-04-02T13:59:04.238Z,61.79
2017-04-02T14:00:14.594Z,61.79
2017-04-02T14:01:24.939Z,61.79
2017-04-02T14:02:34.979Z,61.99
2017-04-02T14:03:45.307Z,61.99
2017-04-02T14:04:55.024Z,61.79
2017-04-02T14:06:05.088Z,61.79
2017-04-02T14:07:15.435Z,61.99
2017-04-02T14:08:25.464Z,62.08
2017-04-02T14:09:35.807Z,62.08
2017-04-02T14:10:45.541Z,62.05
2017-04-02T14:11:56.138Z,61.96
2017-04-02T14:13:06.110Z,62.66
2017-04-02T14:14:16.466Z,62.83
2017-04-02T14:15:26.896Z,62.38
2017-04-02T14:16:37.261Z,62.28
2017-04-02T14:17:47.614Z,62.28
2017-04-02T14:18:57.656Z,62.28
2017-04-02T14:20:08.005Z,62.15
2017-04-02T14:21:18.042Z,62.35
2017-04-02T14:22:28.394Z,62.05
2017-04-02T14:23:38.485Z,62.83
2017-04-02T14:24:48.838Z,63.02
2017-04-02T14:25:59.188Z,62.63
2017-04-02T14:27:09.270Z,62.73
2017-04-02T14:28:19.633Z,62.93
2017-04-02T14:29:29.997Z,62.83
2017-04-02T14:30:40.357Z,62.83
2017-04-02T14:31:50.452Z,62.73
2017-04-02T14:33:00.814Z,62.44
2017-04-02T14:34:11.166Z,62.32
2017-04-02T14:35:21.522Z,62.51
2017-04-02T14:36:31.885Z,62.7
2017-04-02T14:37:41.946Z,62.7
2017-04-02T14:38:51.983Z,62.73
2017-04-02T14:40:02.330Z,62.73
2017-04-02T14:41:12.364Z,62.44
2017-04-02T14:42:22.719Z,62.44
2017-04-02T14:43:33.090Z,62.6
2017-04-02T14:44:43.127Z,62.6
2017-04-02T14:45:53.488Z,62.6
2017-04-02T14:47:03.511Z,62.32
2017-04-02T14:48:13.867Z,62.41
2017-04-02T14:49:24.225Z,62.6
2017-04-02T14:50:34.575Z,62.32
2017-04-02T14:51:44.621Z,62.6
2017-04-02T14:52:54.959Z,62.6
2017-04-02T14:54:04.990Z,62.9
2017-04-02T14:55:15.339Z,62.87
2017-04-02T14:56:25.679Z,63.16
2017-04-02T14:57:36.029Z,62.87
2017-04-02T14:58:46.078Z,62.77
2017-04-02T14:59:56.442Z,62.96
2017-04-02T15:01:06.812Z,63.06
2017-04-02T15:02:16.860Z,62.96
2017-04-02T15:03:27.210Z,62.87
2017-04-02T15:04:37.557Z,62.57
2017-04-02T15:05:47.919Z,62.57
2017-04-02T15:06:57.978Z,62.57
2017-04-02T15:08:08.350Z,62.87
2017-04-02T15:09:18.712Z,62.48
2017-04-02T15:10:29.081Z,62.67
2017-04-02T15:11:39.122Z,62.54
2017-04-02T15:12:49.484Z,62.77
2017-04-02T15:13:59.852Z,63.03
2017-04-02T15:15:10.689Z,63.13
2017-04-02T15:16:21.049Z,63.13
2017-04-02T15:17:31.070Z,63.32
2017-04-02T15:18:41.437Z,63.42
2017-04-02T15:19:51.790Z,63.23
2017-04-02T15:21:02.107Z,63.2
2017-04-02T15:22:12.469Z,63.23
2017-04-02T15:23:22.386Z,63.29
2017-04-02T15:24:33.218Z,63.29
2017-04-02T15:25:44.762Z,63.1
2017-04-02T15:26:57.017Z,63.2
2017-04-02T15:28:07.084Z,63.1
2017-04-02T15:29:19.639Z,63.1
2017-04-02T15:30:30.113Z,63.1
2017-04-02T15:31:40.793Z,63.1
2017-04-02T15:32:51.138Z,63.1
2017-04-02T15:34:01.488Z,63.2
2017-04-02T15:35:11.526Z,63.1
2017-04-02T15:36:21.575Z,63
2017-04-02T15:37:31.617Z,63.1
2017-04-02T15:38:41.974Z,63
2017-04-02T15:39:52.014Z,62.68
2017-04-02T15:41:02.344Z,62.87
2017-04-02T15:42:12.711Z,63.17
2017-04-02T15:43:23.064Z,63.36
2017-04-02T15:44:33.400Z,62.87
2017-04-02T15:45:43.767Z,62.97